Time;durP1;ratioP1;P1;durP2;ratioP2;P2;SDS_P1;SDS_P2;PMS_P1;PMS_P2;Temp;Humidity;BMP_temperature;BMP_pressure;BME280_temperature;BME280_humidity;BME280_pressure;Samples;Min_cycle;Max_cycle;Signal;HPM_P1;HPM_P2
2021/05/30 00:00:13;;;;;;;1.65;1.55;;;16.00;99.90;;;;;;5029804;28;20489;-73
2021/05/30 00:02:39;;;;;;;4.00;1.77;;;16.00;99.90;;;;;;5028982;28;20017;-72
2021/05/30 00:05:06;;;;;;;2.22;2.13;;;15.90;99.90;;;;;;5028366;28;20033;-72
2021/05/30 00:07:32;;;;;;;6.63;3.78;;;15.80;99.90;;;;;;5029272;28;20033;-73
2021/05/30 00:09:58;;;;;;;2.13;2.03;;;15.90;99.90;;;;;;5028380;28;20079;-73
2021/05/30 00:12:24;;;;;;;1.67;1.58;;;15.90;99.90;;;;;;5028036;28;20025;-74
2021/05/30 00:14:50;;;;;;;1.65;1.55;;;16.00;99.90;;;;;;5028421;28;20026;-73
2021/05/30 00:17:16;;;;;;;6.47;1.55;;;16.10;99.90;;;;;;5029519;28;20033;-72
2021/05/30 00:19:43;;;;;;;1.30;1.20;;;16.30;99.90;;;;;;5027557;28;20030;-72
2021/05/30 00:22:10;;;;;;;1.77;1.33;;;16.30;99.90;;;;;;5029385;28;20049;-74
2021/05/30 00:24:36;;;;;;;3.58;2.13;;;16.20;99.90;;;;;;5027838;28;20477;-73
2021/05/30 00:27:03;;;;;;;3.30;1.75;;;16.10;99.90;;;;;;5028910;28;20030;-73
2021/05/30 00:29:29;;;;;;;5.03;1.48;;;16.10;99.90;;;;;;5028555;28;20084;-75
2021/05/30 00:31:58;;;;;;;2.75;1.63;;;16.20;99.90;;;;;;5029870;28;20021;-73
2021/05/30 00:34:24;;;;;;;1.60;1.50;;;16.30;99.90;;;;;;5028456;28;20032;-73
2021/05/30 00:36:50;;;;;;;2.15;2.05;;;16.30;99.90;;;;;;5028025;28;20080;-73
2021/05/30 00:39:16;;;;;;;2.10;1.88;;;16.20;99.90;;;;;;5029029;28;20395;-74
2021/05/30 00:41:41;;;;;;;3.85;1.55;;;16.20;99.90;;;;;;5029638;28;20028;-74
2021/05/30 00:44:23;;;;;;;2.05;1.83;;;16.10;99.90;;;;;;5011372;28;20030;-73
2021/05/30 00:46:51;;;;;;;3.53;1.58;;;16.10;99.90;;;;;;5026937;28;20025;-74
2021/05/30 00:49:17;;;;;;;1.42;1.38;;;16.10;99.90;;;;;;5027073;28;20155;-72
2021/05/30 00:51:42;;;;;;;2.58;2.03;;;16.10;99.90;;;;;;5028678;28;20092;-73
2021/05/30 00:54:08;;;;;;;1.95;1.73;;;16.00;99.90;;;;;;5029436;28;20026;-73
2021/05/30 00:56:34;;;;;;;1.75;1.63;;;16.00;99.90;;;;;;5006531;28;20036;-73
2021/05/30 00:59:00;;;;;;;2.40;1.40;;;16.00;99.90;;;;;;5026739;28;20403;-73
2021/05/30 01:01:26;;;;;;;1.50;1.27;;;16.10;99.90;;;;;;5028877;28;20033;-73
2021/05/30 01:03:52;;;;;;;2.45;1.42;;;16.10;99.90;;;;;;5028764;28;20022;-74
2021/05/30 01:06:17;;;;;;;1.42;1.33;;;16.10;99.90;;;;;;5031760;28;20482;-73
2021/05/30 01:08:43;;;;;;;3.50;2.05;;;16.10;99.90;;;;;;5015069;28;20665;-73
2021/05/30 01:11:15;;;;;;;1.88;1.73;;;16.10;99.90;;;;;;5030940;28;20083;-71
2021/05/30 01:13:45;;;;;;;1.65;1.55;;;16.10;99.90;;;;;;5027260;28;20114;-72
2021/05/30 01:16:13;;;;;;;2.65;1.85;;;16.10;99.90;;;;;;5031632;28;20423;-73
2021/05/30 01:18:39;;;;;;;3.00;1.63;;;16.00;99.90;;;;;;5014026;28;20026;-73
2021/05/30 01:21:05;;;;;;;1.90;1.80;;;16.00;99.90;;;;;;5031491;28;20049;-72
2021/05/30 01:23:32;;;;;;;1.63;1.52;;;16.00;99.90;;;;;;5032444;28;20021;-73
2021/05/30 01:25:58;;;;;;;3.72;1.85;;;15.90;99.90;;;;;;5028348;28;20026;-74
2021/05/30 01:28:24;;;;;;;2.22;1.67;;;15.90;99.90;;;;;;5030223;28;20026;-72
2021/05/30 01:30:50;;;;;;;2.13;1.92;;;15.80;99.90;;;;;;5027647;28;20094;-73
2021/05/30 01:33:16;;;;;;;2.17;1.98;;;15.70;99.90;;;;;;5032214;28;20519;-72
2021/05/30 01:35:42;;;;;;;3.28;1.52;;;15.70;99.90;;;;;;5028020;28;20125;-72
2021/05/30 01:38:08;;;;;;;2.22;1.83;;;15.60;99.90;;;;;;5030646;28;20033;-73
2021/05/30 01:40:34;;;;;;;2.25;1.83;;;15.50;99.90;;;;;;5015086;28;20053;-73
2021/05/30 01:42:59;;;;;;;2.25;1.73;;;15.40;99.90;;;;;;5032127;28;20017;-74
2021/05/30 01:45:30;;;;;;;3.33;1.92;;;15.40;99.90;;;;;;5031769;28;20023;-73
2021/05/30 01:47:57;;;;;;;2.10;2.00;;;15.40;99.90;;;;;;5006147;28;20472;-75
2021/05/30 01:50:26;;;;;;;2.42;2.20;;;15.40;99.90;;;;;;5029226;28;20033;-74
2021/05/30 01:52:52;;;;;;;2.55;2.08;;;15.30;99.90;;;;;;5031127;28;20068;-77
2021/05/30 01:55:26;;;;;;;2.95;2.47;;;15.40;99.90;;;;;;5016860;28;20503;-74
2021/05/30 01:57:54;;;;;;;2.28;2.08;;;15.40;99.90;;;;;;5025293;28;20029;-73
2021/05/30 02:00:20;;;;;;;1.92;1.80;;;15.30;99.90;;;;;;5030319;28;20029;-73
2021/05/30 02:02:50;;;;;;;2.28;2.08;;;15.30;99.90;;;;;;5029835;28;20067;-73
2021/05/30 02:05:16;;;;;;;2.10;1.90;;;15.20;99.90;;;;;;5028939;28;20036;-73
2021/05/30 02:07:43;;;;;;;3.28;2.33;;;15.20;99.90;;;;;;5013526;28;20136;-74
2021/05/30 02:10:12;;;;;;;2.58;2.30;;;15.20;99.90;;;;;;5013738;28;20403;-72
2021/05/30 02:12:38;;;;;;;2.25;1.88;;;15.10;99.90;;;;;;5021434;28;20415;-74
2021/05/30 02:15:06;;;;;;;3.97;1.92;;;15.10;99.90;;;;;;5028608;28;20444;-73
2021/05/30 02:17:34;;;;;;;1.98;1.88;;;15.10;99.90;;;;;;5027706;28;20037;-73
2021/05/30 02:20:00;;;;;;;2.08;1.95;;;15.10;99.90;;;;;;5029360;28;20026;-72
2021/05/30 02:22:26;;;;;;;2.58;2.38;;;15.00;99.90;;;;;;5030277;28;20075;-73
2021/05/30 02:24:52;;;;;;;3.53;2.97;;;15.00;99.90;;;;;;5029772;28;20025;-74
2021/05/30 02:27:18;;;;;;;2.60;2.40;;;15.00;99.90;;;;;;5027113;28;20036;-78
2021/05/30 02:29:45;;;;;;;2.15;2.05;;;14.90;99.90;;;;;;5025721;28;20029;-74
2021/05/30 02:32:12;;;;;;;2.17;2.08;;;15.00;99.90;;;;;;5029949;28;20105;-75
2021/05/30 02:34:41;;;;;;;2.50;2.30;;;15.00;99.90;;;;;;5030665;28;20560;-75
2021/05/30 02:37:12;;;;;;;2.70;2.47;;;14.90;99.90;;;;;;5012839;28;20144;-73
2021/05/30 02:39:38;;;;;;;2.58;2.10;;;14.90;99.90;;;;;;5029320;28;20021;-73
2021/05/30 02:42:05;;;;;;;3.13;2.58;;;14.80;99.90;;;;;;5033821;28;20391;-73
2021/05/30 02:44:31;;;;;;;2.92;1.92;;;14.80;99.90;;;;;;5027625;28;20026;-72
2021/05/30 02:46:58;;;;;;;2.95;2.15;;;14.70;99.90;;;;;;5031213;28;20054;-74
2021/05/30 02:49:24;;;;;;;4.47;2.30;;;14.70;99.90;;;;;;5043856;28;20083;-73
2021/05/30 02:51:51;;;;;;;2.50;2.30;;;14.60;99.90;;;;;;5019228;28;20075;-75
2021/05/30 02:54:17;;;;;;;2.45;2.20;;;14.60;99.90;;;;;;5027079;28;20479;-74
2021/05/30 02:56:43;;;;;;;4.03;2.87;;;14.60;99.90;;;;;;4990139;28;1141083;-74
2021/05/30 02:59:09;;;;;;;3.35;2.63;;;14.60;99.90;;;;;;5031072;28;20021;-76
2021/05/30 03:01:35;;;;;;;6.90;2.95;;;14.50;99.90;;;;;;5033333;28;20100;-76
2021/05/30 03:04:00;;;;;;;2.45;2.25;;;14.60;99.90;;;;;;5013825;28;20533;-74
2021/05/30 03:06:26;;;;;;;2.42;2.22;;;14.60;99.90;;;;;;5013228;28;20059;-74
2021/05/30 03:08:52;;;;;;;2.80;2.60;;;14.60;99.90;;;;;;5028488;28;20029;-74
2021/05/30 03:11:20;;;;;;;1.98;1.88;;;14.70;99.90;;;;;;5031045;28;20364;-74
2021/05/30 03:13:46;;;;;;;3.53;2.20;;;14.90;99.90;;;;;;5014712;28;20467;-74
2021/05/30 03:16:11;;;;;;;2.10;2.00;;;15.00;99.90;;;;;;5025028;28;20025;-75
2021/05/30 03:18:37;;;;;;;2.30;2.10;;;15.00;99.90;;;;;;5030146;28;20558;-74
2021/05/30 03:21:03;;;;;;;4.68;2.00;;;15.20;99.90;;;;;;5029813;28;20029;-73
2021/05/30 03:23:29;;;;;;;3.10;1.67;;;15.30;99.90;;;;;;5029569;28;20026;-74
2021/05/30 03:25:55;;;;;;;2.40;2.15;;;15.40;99.90;;;;;;5030474;28;20030;-74
2021/05/30 03:28:20;;;;;;;2.20;1.63;;;15.50;99.90;;;;;;5029009;28;20500;-73
2021/05/30 03:30:46;;;;;;;3.05;1.90;;;15.60;99.90;;;;;;5030190;28;20159;-73
2021/05/30 03:33:12;;;;;;;2.95;2.75;;;15.60;99.90;;;;;;5029419;28;20052;-74
2021/05/30 03:35:38;;;;;;;2.42;1.70;;;15.50;99.90;;;;;;5029296;28;20028;-74
2021/05/30 03:38:07;;;;;;;2.45;2.05;;;15.50;99.90;;;;;;5029574;28;20060;-73
2021/05/30 03:40:45;;;;;;;3.88;2.03;;;15.40;99.90;;;;;;5030894;28;20135;-73
2021/05/30 03:43:11;;;;;;;6.05;2.13;;;15.40;99.90;;;;;;5029838;28;20033;-75
2021/05/30 03:45:37;;;;;;;2.10;2.00;;;15.40;99.90;;;;;;5029198;28;20022;-73
2021/05/30 03:48:03;;;;;;;3.95;2.20;;;15.50;99.90;;;;;;5027503;28;20029;-75
2021/05/30 03:50:28;;;;;;;1.75;1.65;;;15.60;99.90;;;;;;5030019;28;20395;-76
2021/05/30 03:52:54;;;;;;;4.20;2.00;;;15.60;99.90;;;;;;5030182;28;20036;-72
2021/05/30 03:55:20;;;;;;;2.72;2.10;;;15.50;99.90;;;;;;5018025;28;20036;-72
2021/05/30 03:57:47;;;;;;;2.20;2.00;;;15.60;99.90;;;;;;5028326;28;20380;-73
2021/05/30 04:00:18;;;;;;;3.08;2.33;;;15.50;99.90;;;;;;5027226;28;20105;-72
2021/05/30 04:02:44;;;;;;;3.33;1.83;;;15.60;99.90;;;;;;5030778;28;20592;-74
2021/05/30 04:05:11;;;;;;;2.30;2.05;;;15.50;99.90;;;;;;5012875;28;20502;-73
2021/05/30 04:07:37;;;;;;;2.90;1.98;;;15.60;99.90;;;;;;5012027;28;20036;-74
2021/05/30 04:10:07;;;;;;;4.85;2.10;;;15.70;99.90;;;;;;5031908;28;20109;-73
2021/05/30 04:12:37;;;;;;;2.60;2.25;;;15.60;99.90;;;;;;5031206;28;20032;-74
2021/05/30 04:15:04;;;;;;;2.55;2.10;;;15.60;99.90;;;;;;5012168;28;20061;-73
2021/05/30 04:17:30;;;;;;;2.78;2.40;;;15.60;99.90;;;;;;5029467;28;20095;-74
2021/05/30 04:19:56;;;;;;;5.13;4.13;;;15.60;99.90;;;;;;5029223;28;20487;-76
2021/05/30 04:22:22;;;;;;;1.85;1.70;;;15.60;99.90;;;;;;5029644;28;20022;-74
2021/05/30 04:24:47;;;;;;;2.05;1.95;;;15.70;99.90;;;;;;5029733;28;20539;-73
2021/05/30 04:27:13;;;;;;;2.45;2.35;;;15.70;99.90;;;;;;5028416;28;20022;-74
2021/05/30 04:29:39;;;;;;;4.18;2.22;;;15.60;99.90;;;;;;5029168;28;20025;-73
2021/05/30 04:32:05;;;;;;;2.17;2.00;;;15.60;99.90;;;;;;5029583;28;20426;-74
2021/05/30 04:34:31;;;;;;;2.10;1.90;;;15.70;99.90;;;;;;5026360;28;20419;-73
2021/05/30 04:36:57;;;;;;;3.50;2.35;;;15.70;99.90;;;;;;5030028;28;20109;-74
2021/05/30 04:39:23;;;;;;;2.45;2.35;;;15.80;99.90;;;;;;5032023;28;20029;-73
2021/05/30 04:41:48;;;;;;;1.80;1.63;;;15.80;99.90;;;;;;5033055;28;20071;-72
2021/05/30 04:44:14;;;;;;;5.43;2.67;;;15.90;99.90;;;;;;5032357;28;20022;-74
2021/05/30 04:46:40;;;;;;;3.03;1.92;;;15.90;99.90;;;;;;5029992;28;20052;-73
2021/05/30 04:49:06;;;;;;;2.88;1.90;;;15.90;99.90;;;;;;5031753;28;20038;-74
2021/05/30 04:51:31;;;;;;;3.30;2.22;;;16.00;99.90;;;;;;5014235;28;20052;-74
2021/05/30 04:53:58;;;;;;;3.22;2.53;;;16.00;99.90;;;;;;5031759;28;20064;-73
2021/05/30 04:56:24;;;;;;;3.85;3.38;;;16.10;99.90;;;;;;5030862;28;20022;-73
2021/05/30 04:58:51;;;;;;;2.50;2.30;;;16.20;99.90;;;;;;5032351;28;20527;-73
2021/05/30 05:01:16;;;;;;;2.60;2.38;;;16.20;99.90;;;;;;5032534;28;20036;-75
2021/05/30 05:03:42;;;;;;;3.63;2.42;;;16.30;99.90;;;;;;5033753;28;20021;-75
2021/05/30 05:06:08;;;;;;;2.13;1.92;;;16.30;99.90;;;;;;5033102;28;20022;-73
2021/05/30 05:08:34;;;;;;;2.53;2.13;;;16.30;99.90;;;;;;5031768;28;20383;-73
2021/05/30 05:11:00;;;;;;;2.47;2.28;;;16.60;99.90;;;;;;5033732;28;20099;-75
2021/05/30 05:13:26;;;;;;;3.13;2.88;;;16.60;99.90;;;;;;5016181;28;20412;-75
2021/05/30 05:15:53;;;;;;;2.15;2.05;;;16.60;99.90;;;;;;5033491;28;20498;-73
2021/05/30 05:18:22;;;;;;;2.80;2.60;;;16.60;99.90;;;;;;5036160;28;20119;-77
2021/05/30 05:20:48;;;;;;;2.30;2.10;;;16.70;99.90;;;;;;5032648;28;20105;-75
2021/05/30 05:23:15;;;;;;;3.38;2.22;;;16.70;99.90;;;;;;5031723;28;20021;-75
2021/05/30 05:25:41;;;;;;;3.03;2.25;;;16.80;99.90;;;;;;5032191;28;20057;-75
2021/05/30 05:28:07;;;;;;;2.33;2.13;;;16.80;99.90;;;;;;5033370;28;20040;-74
2021/05/30 05:30:33;;;;;;;1.98;1.88;;;16.80;99.90;;;;;;5033412;28;20026;-73
2021/05/30 05:32:59;;;;;;;7.72;2.25;;;16.90;99.90;;;;;;5032610;28;20471;-74
2021/05/30 05:35:27;;;;;;;2.03;1.92;;;16.90;99.90;;;;;;5034248;28;20029;-74
2021/05/30 05:37:56;;;;;;;1.85;1.75;;;16.90;99.90;;;;;;5031545;28;20018;-74
2021/05/30 05:40:23;;;;;;;3.40;2.65;;;17.00;99.90;;;;;;5032131;28;20100;-76
2021/05/30 05:42:53;;;;;;;2.97;2.13;;;17.10;99.90;;;;;;5016456;28;20021;-75
2021/05/30 05:45:21;;;;;;;5.60;1.77;;;17.10;99.90;;;;;;5034877;28;20032;-73
2021/05/30 05:47:46;;;;;;;3.63;2.65;;;17.10;99.90;;;;;;5032597;28;20116;-76
2021/05/30 05:50:14;;;;;;;2.40;2.30;;;17.20;99.90;;;;;;5032377;28;20064;-74
2021/05/30 05:52:41;;;;;;;3.95;2.58;;;17.30;99.90;;;;;;5031105;28;20506;-76
2021/05/30 05:55:08;;;;;;;5.53;2.40;;;17.20;99.90;;;;;;5032733;28;20053;-74
2021/05/30 05:57:38;;;;;;;3.03;2.83;;;17.10;99.90;;;;;;5031880;28;20407;-73
2021/05/30 06:00:10;;;;;;;3.97;3.00;;;17.00;99.90;;;;;;5032633;28;20669;-73
2021/05/30 06:02:36;;;;;;;3.00;2.80;;;17.00;99.90;;;;;;5032220;28;20507;-74
2021/05/30 06:05:04;;;;;;;6.03;3.33;;;17.10;99.90;;;;;;5033081;28;20483;-74
2021/05/30 06:07:29;;;;;;;4.90;4.22;;;17.20;99.90;;;;;;5031331;28;20083;-78
2021/05/30 06:09:55;;;;;;;2.25;1.95;;;17.30;99.90;;;;;;5033020;28;20030;-73
2021/05/30 06:12:21;;;;;;;2.47;2.28;;;17.20;99.90;;;;;;5033102;28;20033;-75
2021/05/30 06:14:47;;;;;;;2.53;2.38;;;17.20;99.90;;;;;;5033908;28;20041;-75
2021/05/30 06:17:12;;;;;;;5.05;2.25;;;17.20;99.90;;;;;;5031723;28;20025;-76
2021/05/30 06:19:39;;;;;;;2.20;2.00;;;17.20;99.90;;;;;;5014139;28;20033;-75
2021/05/30 06:22:05;;;;;;;2.70;2.50;;;17.30;99.90;;;;;;5031702;28;20124;-74
2021/05/30 06:24:35;;;;;;;2.60;2.40;;;17.40;99.90;;;;;;5032531;28;20394;-75
2021/05/30 06:27:02;;;;;;;2.78;2.58;;;17.50;99.90;;;;;;5032354;28;20029;-75
2021/05/30 06:29:29;;;;;;;2.80;2.05;;;17.60;99.90;;;;;;5032256;28;20022;-74
2021/05/30 06:31:55;;;;;;;4.75;2.13;;;17.60;99.90;;;;;;5031307;28;20029;-76
2021/05/30 06:34:21;;;;;;;3.65;1.98;;;17.60;99.90;;;;;;5036571;28;20032;-75
2021/05/30 06:36:49;;;;;;;2.25;1.90;;;17.60;99.90;;;;;;5032818;28;20037;-73
2021/05/30 06:39:15;;;;;;;2.40;2.08;;;17.60;99.90;;;;;;5032258;28;20476;-75
2021/05/30 06:41:41;;;;;;;2.72;2.53;;;17.60;99.90;;;;;;5032192;28;20025;-75
2021/05/30 06:44:07;;;;;;;3.05;2.70;;;17.70;99.90;;;;;;5031483;28;20025;-74
2021/05/30 06:46:34;;;;;;;2.25;2.05;;;17.80;99.90;;;;;;5034531;28;20026;-74
2021/05/30 06:49:00;;;;;;;2.38;2.17;;;17.70;99.90;;;;;;5032915;28;20033;-74
2021/05/30 06:51:30;;;;;;;3.10;2.40;;;17.70;99.90;;;;;;5014487;28;20670;-75
2021/05/30 06:53:57;;;;;;;2.55;2.35;;;17.90;99.90;;;;;;5032533;28;20025;-76
2021/05/30 06:56:23;;;;;;;2.10;1.90;;;18.00;99.90;;;;;;5034187;28;20478;-74
2021/05/30 06:58:49;;;;;;;2.92;2.30;;;18.10;99.90;;;;;;5029705;28;20029;-76
2021/05/30 07:01:16;;;;;;;4.05;2.10;;;18.10;99.90;;;;;;5039121;28;20075;-74
2021/05/30 07:03:42;;;;;;;1.88;1.75;;;18.00;99.90;;;;;;5039531;28;20025;-74
2021/05/30 07:06:08;;;;;;;3.30;2.45;;;18.00;99.90;;;;;;5039204;28;20026;-74
2021/05/30 07:08:34;;;;;;;2.63;2.03;;;18.10;99.90;;;;;;5040822;28;20075;-74
2021/05/30 07:10:59;;;;;;;5.45;2.17;;;18.20;99.90;;;;;;5043136;28;20056;-75
2021/05/30 07:13:26;;;;;;;2.13;1.98;;;18.30;99.90;;;;;;5025421;28;20057;-74
2021/05/30 07:15:52;;;;;;;2.30;2.10;;;18.40;99.90;;;;;;5031071;28;20067;-75
2021/05/30 07:18:22;;;;;;;2.00;1.90;;;18.40;99.90;;;;;;5031350;28;20021;-75
2021/05/30 07:20:49;;;;;;;2.50;2.25;;;18.40;99.90;;;;;;5031220;28;20379;-76
2021/05/30 07:23:15;;;;;;;2.70;2.05;;;18.50;99.90;;;;;;5031700;28;20097;-74
2021/05/30 07:25:41;;;;;;;2.05;1.92;;;18.40;99.90;;;;;;5013198;28;20041;-75
2021/05/30 07:28:07;;;;;;;2.70;2.50;;;18.40;99.90;;;;;;5030765;28;20096;-74
2021/05/30 07:30:34;;;;;;;3.10;2.90;;;18.40;99.90;;;;;;5030934;28;20501;-75
2021/05/30 07:33:03;;;;;;;4.40;1.95;;;18.60;99.90;;;;;;5031505;28;20013;-75
2021/05/30 07:35:30;;;;;;;2.38;1.80;;;18.70;99.90;;;;;;5030252;28;20891;-73
2021/05/30 07:37:56;;;;;;;1.60;1.42;;;18.70;99.90;;;;;;5030989;28;20025;-76
2021/05/30 07:40:23;;;;;;;2.40;2.15;;;18.70;99.90;;;;;;5030419;28;20079;-74
2021/05/30 07:42:48;;;;;;;2.30;1.70;;;18.80;99.90;;;;;;5013356;28;20484;-75
2021/05/30 07:45:16;;;;;;;2.15;2.05;;;19.00;99.90;;;;;;5013098;28;20040;-77
2021/05/30 07:47:41;;;;;;;2.33;1.95;;;18.90;99.90;;;;;;5032701;28;20400;-74
2021/05/30 07:50:09;;;;;;;2.10;1.90;;;19.00;99.90;;;;;;5029482;28;20056;-75
2021/05/30 07:52:35;;;;;;;1.88;1.73;;;19.00;99.90;;;;;;5028551;28;20021;-75
2021/05/30 07:55:02;;;;;;;3.55;1.88;;;19.20;99.90;;;;;;5031169;28;20443;-75
2021/05/30 07:57:28;;;;;;;3.33;2.00;;;19.30;99.90;;;;;;5030442;28;20087;-76
2021/05/30 07:59:53;;;;;;;1.27;1.27;;;19.40;99.90;;;;;;5030336;28;20025;-75
2021/05/30 08:02:19;;;;;;;4.65;1.83;;;19.40;99.90;;;;;;5031668;28;20049;-76
2021/05/30 08:04:45;;;;;;;2.50;1.95;;;19.50;99.90;;;;;;5032265;28;20537;-76
2021/05/30 08:07:10;;;;;;;3.33;1.30;;;19.50;99.90;;;;;;5040469;28;20022;-76
2021/05/30 08:09:36;;;;;;;1.90;1.77;;;19.40;99.90;;;;;;5041504;28;20033;-78
2021/05/30 08:12:03;;;;;;;1.75;1.55;;;19.40;99.90;;;;;;5033179;28;20030;-75
2021/05/30 08:14:29;;;;;;;3.70;1.30;;;19.50;99.90;;;;;;5030264;28;20029;-75
2021/05/30 08:16:58;;;;;;;2.10;1.67;;;19.60;99.90;;;;;;5030705;28;20105;-77
2021/05/30 08:19:24;;;;;;;5.43;2.00;;;19.60;99.90;;;;;;5030366;28;20552;-78
2021/05/30 08:21:50;;;;;;;2.05;1.70;;;19.60;99.90;;;;;;5028273;28;20033;-72
2021/05/30 08:24:17;;;;;;;4.95;1.63;;;19.70;99.90;;;;;;5031226;28;20044;-73
2021/05/30 08:26:43;;;;;;;1.40;1.30;;;19.70;99.90;;;;;;5028466;28;20022;-74
2021/05/30 08:29:08;;;;;;;1.90;1.80;;;19.70;99.90;;;;;;5031231;28;20024;-73
2021/05/30 08:31:34;;;;;;;1.80;1.70;;;19.80;99.90;;;;;;5031609;28;20021;-73
2021/05/30 08:34:00;;;;;;;2.22;1.65;;;19.90;99.90;;;;;;5038220;28;20546;-70
2021/05/30 08:36:28;;;;;;;3.38;1.30;;;20.00;99.90;;;;;;5031235;28;20091;-72
2021/05/30 08:38:54;;;;;;;2.15;1.48;;;20.00;99.90;;;;;;5029441;28;20025;-72
2021/05/30 08:41:20;;;;;;;1.65;1.55;;;20.00;99.90;;;;;;5013589;28;20081;-75
2021/05/30 08:43:46;;;;;;;1.63;1.25;;;20.10;99.90;;;;;;5023971;28;20030;-73
2021/05/30 08:46:12;;;;;;;1.73;1.55;;;20.10;99.90;;;;;;4995375;28;20030;-76
2021/05/30 08:48:38;;;;;;;2.65;1.60;;;20.00;99.90;;;;;;5013049;28;20036;-73
2021/05/30 08:51:05;;;;;;;1.60;1.45;;;20.10;99.90;;;;;;5030391;28;20056;-76
2021/05/30 08:53:31;;;;;;;8.80;2.30;;;20.20;99.90;;;;;;5032361;28;20072;-72
2021/05/30 08:55:57;;;;;;;1.85;1.75;;;20.20;99.90;;;;;;5013150;28;20132;-72
2021/05/30 08:58:36;;;;;;;1.58;1.48;;;20.00;99.90;;;;;;5030846;28;20109;-71
2021/05/30 09:01:21;;;;;;;1.77;1.67;;;20.10;99.90;;;;;;5012995;28;20519;-76
2021/05/30 09:03:51;;;;;;;1.85;1.65;;;20.10;99.90;;;;;;5030859;28;20049;-75
2021/05/30 09:06:18;;;;;;;2.25;1.45;;;20.20;99.90;;;;;;5023540;28;20060;-73
2021/05/30 09:08:44;;;;;;;1.75;1.65;;;20.50;99.90;;;;;;5030077;28;20017;-81
2021/05/30 09:11:10;;;;;;;1.63;1.52;;;20.50;99.90;;;;;;5030001;28;20059;-74
2021/05/30 09:14:04;;;;;;;1.60;1.50;;;20.40;99.90;;;;;;5013625;28;20029;-72
2021/05/30 09:17:04;;;;;;;3.28;3.00;;;20.60;99.90;;;;;;5027592;28;20045;-75
2021/05/30 09:19:45;;;;;;;1.65;1.55;;;20.80;99.90;;;;;;5030839;28;20025;-73
2021/05/30 09:22:32;;;;;;;6.63;1.20;;;20.70;99.90;;;;;;5030602;28;20075;-71
2021/05/30 09:25:10;;;;;;;1.92;1.27;;;20.30;99.90;;;;;;5032743;28;20040;-74
2021/05/30 09:28:00;;;;;;;3.38;1.95;;;20.20;99.90;;;;;;5032917;28;20133;-72
2021/05/30 09:30:28;;;;;;;1.65;1.55;;;20.60;99.90;;;;;;5032164;28;20036;-73
2021/05/30 09:33:00;;;;;;;1.27;1.23;;;20.40;99.90;;;;;;5033134;28;20490;-73
2021/05/30 09:35:37;;;;;;;1.80;1.40;;;20.50;99.90;;;;;;5032717;28;20026;-72
2021/05/30 09:38:18;;;;;;;1.45;1.35;;;20.70;99.90;;;;;;5031792;28;20148;-72
2021/05/30 09:40:46;;;;;;;1.95;1.85;;;20.60;99.90;;;;;;5032261;28;20111;-73
2021/05/30 09:43:48;;;;;;;3.15;1.52;;;20.60;99.90;;;;;;5033321;28;20139;-74
2021/05/30 09:46:21;;;;;;;1.90;1.55;;;20.60;99.90;;;;;;4991341;28;20041;-72
2021/05/30 09:48:50;;;;;;;3.95;2.08;;;20.80;99.90;;;;;;5029394;28;20029;-72
2021/05/30 09:51:30;;;;;;;2.40;1.75;;;21.00;99.90;;;;;;5032034;28;20281;-73
2021/05/30 09:54:02;;;;;;;3.45;1.55;;;21.00;99.90;;;;;;5031511;28;20104;-72
2021/05/30 09:56:28;;;;;;;1.65;1.55;;;20.80;99.90;;;;;;5031998;28;20475;-74
2021/05/30 09:58:55;;;;;;;3.72;1.85;;;20.80;99.90;;;;;;5032250;28;20033;-74
2021/05/30 10:01:21;;;;;;;2.08;1.88;;;20.80;99.90;;;;;;5032133;28;20487;-72
2021/05/30 10:03:47;;;;;;;2.35;1.40;;;20.70;99.90;;;;;;5031760;28;20028;-74
2021/05/30 10:06:13;;;;;;;2.13;1.80;;;20.90;99.90;;;;;;5031189;28;20183;-73
2021/05/30 10:08:39;;;;;;;1.73;1.48;;;21.20;99.90;;;;;;5015279;28;20029;-72
2021/05/30 10:11:05;;;;;;;2.75;1.83;;;21.30;99.90;;;;;;5032455;28;20029;-71
2021/05/30 10:13:31;;;;;;;2.40;1.88;;;21.40;99.90;;;;;;5032560;28;20037;-70
2021/05/30 10:15:59;;;;;;;1.67;1.58;;;21.70;99.90;;;;;;5033053;28;20431;-72
2021/05/30 10:18:27;;;;;;;1.50;1.40;;;21.40;99.90;;;;;;5033544;28;20021;-73
2021/05/30 10:20:54;;;;;;;1.95;1.85;;;21.60;99.90;;;;;;5033302;28;20109;-72
2021/05/30 10:23:22;;;;;;;1.67;1.58;;;21.90;99.90;;;;;;5033607;28;20100;-73
2021/05/30 10:25:49;;;;;;;1.85;1.38;;;22.00;99.90;;;;;;5034342;28;20021;-72
2021/05/30 10:28:18;;;;;;;3.47;1.52;;;21.70;99.90;;;;;;5032223;28;20407;-72
2021/05/30 10:31:24;;;;;;;1.33;1.23;;;21.70;99.90;;;;;;5032529;28;20018;-74
2021/05/30 10:34:19;;;;;;;2.00;1.77;;;21.30;99.90;;;;;;5031321;28;20380;-72
2021/05/30 10:36:57;;;;;;;2.05;1.70;;;21.20;99.90;;;;;;5030825;28;20103;-74
2021/05/30 10:39:29;;;;;;;1.60;1.50;;;21.30;99.90;;;;;;5028820;28;20030;-73
2021/05/30 10:42:07;;;;;;;1.80;1.70;;;21.40;99.90;;;;;;5014503;28;20029;-74
2021/05/30 10:44:49;;;;;;;1.90;1.40;;;21.50;99.90;;;;;;5031552;28;20511;-76
2021/05/30 10:47:15;;;;;;;2.35;2.25;;;21.40;99.90;;;;;;5032095;28;20041;-72
2021/05/30 10:50:02;;;;;;;1.98;1.67;;;21.50;99.90;;;;;;5031449;28;20534;-75
2021/05/30 10:52:35;;;;;;;1.73;1.50;;;21.80;99.90;;;;;;5031583;28;20404;-71
2021/05/30 10:55:08;;;;;;;2.20;1.48;;;22.10;99.90;;;;;;5032034;28;20034;-77
2021/05/30 10:57:39;;;;;;;2.03;1.75;;;22.20;99.90;;;;;;5014941;28;20116;-72
2021/05/30 11:00:25;;;;;;;8.40;1.70;;;22.30;99.90;;;;;;5030607;28;20100;-71
2021/05/30 11:03:08;;;;;;;1.50;1.40;;;22.40;99.90;;;;;;5030745;28;20037;-74
2021/05/30 11:05:51;;;;;;;1.17;1.10;;;22.00;99.90;;;;;;5031985;28;20029;-73
2021/05/30 11:08:32;;;;;;;2.08;1.27;;;22.10;99.90;;;;;;5030867;28;20017;-73
2021/05/30 11:11:20;;;;;;;1.27;1.15;;;21.70;99.90;;;;;;5030074;28;20032;-73
2021/05/30 11:13:52;;;;;;;1.45;1.35;;;22.00;99.90;;;;;;5029684;28;20022;-72
2021/05/30 11:16:20;;;;;;;1.77;1.42;;;22.10;99.90;;;;;;5010260;28;20038;-72
2021/05/30 11:19:05;;;;;;;1.95;1.65;;;22.20;99.90;;;;;;5031021;28;20054;-74
2021/05/30 11:21:43;;;;;;;1.77;1.67;;;22.40;99.90;;;;;;5035093;28;20018;-72
2021/05/30 11:24:18;;;;;;;3.38;1.17;;;22.40;99.90;;;;;;5035229;28;20079;-73
2021/05/30 11:27:02;;;;;;;1.27;1.17;;;22.20;99.90;;;;;;5015081;28;20031;-73
2021/05/30 11:29:29;;;;;;;1.75;1.38;;;21.90;99.90;;;;;;5034617;28;20021;-74
2021/05/30 11:31:55;;;;;;;1.25;1.15;;;22.30;99.90;;;;;;5033877;28;20035;-73
2021/05/30 11:34:28;;;;;;;1.98;1.73;;;22.70;99.60;;;;;;5036696;28;20017;-72
2021/05/30 11:37:08;;;;;;;1.67;1.20;;;22.90;99.10;;;;;;5031777;28;20132;-72
2021/05/30 11:39:38;;;;;;;1.42;1.33;;;22.80;97.90;;;;;;5020224;28;20056;-73
2021/05/30 11:42:05;;;;;;;2.05;1.13;;;22.70;98.60;;;;;;5029455;28;20029;-72
2021/05/30 11:44:32;;;;;;;1.83;1.73;;;22.80;97.50;;;;;;5029525;28;20029;-74
2021/05/30 11:47:01;;;;;;;1.65;1.55;;;22.80;99.10;;;;;;5013898;28;20021;-74
2021/05/30 11:49:31;;;;;;;2.10;1.70;;;23.00;98.90;;;;;;5009681;28;20029;-74
2021/05/30 11:52:11;;;;;;;1.42;1.33;;;22.70;98.70;;;;;;5029516;28;20017;-74
2021/05/30 11:54:46;;;;;;;1.30;1.15;;;22.30;97.80;;;;;;5029005;28;20112;-73
2021/05/30 11:57:14;;;;;;;1.92;1.30;;;22.20;97.80;;;;;;5011042;28;20036;-74
2021/05/30 11:59:54;;;;;;;2.00;1.65;;;22.60;97.60;;;;;;5029949;28;20410;-72
2021/05/30 12:02:34;;;;;;;1.95;1.58;;;23.20;98.10;;;;;;5030227;28;20668;-74
2021/05/30 12:05:06;;;;;;;2.88;1.98;;;23.70;96.10;;;;;;5030703;28;20105;-73
2021/05/30 12:07:32;;;;;;;2.60;2.17;;;24.10;97.10;;;;;;5029226;28;20033;-74
2021/05/30 12:10:05;;;;;;;1.23;1.13;;;24.40;95.30;;;;;;5029428;28;20062;-74
2021/05/30 12:12:38;;;;;;;2.90;1.60;;;23.50;95.20;;;;;;5030537;28;20049;-73
2021/05/30 12:15:12;;;;;;;1.63;1.52;;;22.80;96.70;;;;;;5030128;28;20079;-73
2021/05/30 12:17:59;;;;;;;3.95;1.40;;;22.70;96.90;;;;;;5029125;28;20021;-74
2021/05/30 12:20:35;;;;;;;1.00;1.00;;;23.00;96.50;;;;;;5029561;28;20026;-73
2021/05/30 12:23:11;;;;;;;3.70;1.10;;;23.70;94.90;;;;;;5015732;28;20083;-74
2021/05/30 12:25:47;;;;;;;1.98;1.10;;;24.10;94.10;;;;;;5030623;28;20024;-72
2021/05/30 12:28:15;;;;;;;1.63;1.25;;;23.80;93.70;;;;;;5008924;28;20028;-72
2021/05/30 12:30:40;;;;;;;0.80;0.80;;;23.50;93.60;;;;;;5029687;28;20029;-73
2021/05/30 12:33:06;;;;;;;1.60;1.50;;;23.40;93.20;;;;;;5030425;28;20052;-73
2021/05/30 12:35:53;;;;;;;1.50;1.27;;;23.40;99.20;;;;;;5029711;28;20018;-73
2021/05/30 12:38:29;;;;;;;3.03;1.70;;;23.10;99.90;;;;;;5022732;28;20029;-72
2021/05/30 12:40:55;;;;;;;1.17;1.15;;;23.00;99.90;;;;;;5026913;28;20117;-71
2021/05/30 12:43:41;;;;;;;1.00;1.00;;;23.10;99.90;;;;;;5029907;28;20022;-73
2021/05/30 12:46:09;;;;;;;1.63;1.30;;;23.10;99.90;;;;;;5011788;28;20033;-76
2021/05/30 12:48:44;;;;;;;3.83;1.50;;;22.90;99.90;;;;;;5011931;28;20022;-74
2021/05/30 12:51:26;;;;;;;3.60;1.48;;;22.70;99.90;;;;;;5027225;28;20462;-73
2021/05/30 12:53:53;;;;;;;1.92;1.80;;;22.40;99.90;;;;;;5028637;28;20030;-72
2021/05/30 12:56:27;;;;;;;1.83;1.52;;;22.20;99.90;;;;;;5028312;28;20021;-72